createdAt,value
2022-08-07T00:02:36.593Z,5.10
2022-08-07T00:05:05.738Z,2.50
2022-08-07T00:07:40.317Z,3.72
2022-08-07T00:10:27.162Z,1.90
2022-08-07T00:13:00.636Z,2.58
2022-08-07T00:15:38.002Z,3.25
2022-08-07T00:18:19.874Z,3.17
2022-08-07T00:20:49.793Z,3.30
2022-08-07T00:23:17.729Z,3.47
2022-08-07T00:25:51.818Z,6.25
2022-08-07T00:28:33.790Z,8.70
2022-08-07T00:31:05.761Z,7.97
2022-08-07T00:33:35.962Z,8.07
2022-08-07T00:36:04.732Z,9.87
2022-08-07T00:38:33.307Z,11.52
2022-08-07T00:41:01.794Z,7.95
2022-08-07T00:44:01.496Z,10.48
2022-08-07T00:46:17.017Z,8.65
2022-08-07T00:48:45.330Z,8.17
2022-08-07T00:51:17.598Z,8.07
2022-08-07T00:53:50.852Z,7.40
2022-08-07T00:56:30.147Z,5.25
2022-08-07T00:58:59.275Z,6.30
2022-08-07T01:01:26.900Z,6.30
2022-08-07T01:04:00.335Z,6.25
2022-08-07T01:06:30.022Z,6.82
2022-08-07T01:09:00.720Z,7.13
2022-08-07T01:12:23.278Z,6.90
2022-08-07T01:14:21.115Z,6.23
2022-08-07T01:16:56.091Z,8.25
2022-08-07T01:19:25.449Z,7.90
2022-08-07T01:21:55.657Z,6.20
2022-08-07T01:24:32.139Z,7.72
2022-08-07T01:27:01.598Z,7.40
2022-08-07T01:29:31.499Z,8.70
2022-08-07T01:32:05.327Z,10.10
2022-08-07T01:34:35.377Z,25.08
2022-08-07T01:37:09.815Z,18.95
2022-08-07T01:39:46.424Z,25.13
2022-08-07T01:42:57.293Z,24.55
2022-08-07T01:45:36.847Z,17.52
2022-08-07T01:48:18.601Z,13.13
2022-08-07T01:51:24.044Z,10.63
2022-08-07T01:54:09.385Z,7.93
2022-08-07T01:56:55.338Z,8.63
2022-08-07T01:59:30.908Z,12.10
2022-08-07T02:02:12.036Z,8.73
2022-08-07T02:05:47.497Z,11.15
2022-08-07T02:08:19.686Z,10.03
2022-08-07T02:10:57.998Z,9.98
2022-08-07T02:13:58.168Z,9.50
2022-08-07T02:16:33.201Z,13.80
2022-08-07T02:20:07.444Z,27.55
2022-08-07T02:21:58.875Z,29.10
2022-08-07T02:24:30.213Z,27.55
2022-08-07T02:27:05.100Z,20.98
2022-08-07T02:29:36.853Z,19.40
2022-08-07T02:32:19.342Z,23.00
2022-08-07T02:34:53.014Z,17.57
2022-08-07T02:37:27.109Z,17.60
2022-08-07T02:40:11.881Z,13.50
2022-08-07T02:42:46.888Z,8.60
2022-08-07T02:45:57.707Z,9.90
2022-08-07T02:48:10.356Z,11.97
2022-08-07T02:50:48.995Z,8.65
2022-08-07T02:53:27.638Z,8.65
2022-08-07T02:56:04.395Z,9.23
2022-08-07T02:58:39.869Z,7.05
2022-08-07T03:01:19.108Z,16.20
2022-08-07T03:04:12.584Z,7.32
2022-08-07T03:06:44.662Z,6.72
2022-08-07T03:09:41.783Z,7.93
2022-08-07T03:12:08.126Z,6.15
2022-08-07T03:14:52.182Z,6.53
2022-08-07T03:17:22.134Z,7.72
2022-08-07T03:19:54.699Z,9.35
2022-08-07T03:22:30.411Z,8.43
2022-08-07T03:25:01.771Z,6.22
2022-08-07T03:27:58.745Z,9.77
2022-08-07T03:30:27.721Z,10.38
2022-08-07T03:32:59.362Z,13.18
2022-08-07T03:35:44.057Z,13.30
2022-08-07T03:38:20.929Z,11.40
2022-08-07T03:40:57.476Z,13.93
2022-08-07T03:43:32.246Z,16.25
2022-08-07T03:46:04.106Z,21.85
2022-08-07T03:48:45.390Z,24.60
2022-08-07T03:51:30.698Z,21.10
2022-08-07T03:54:33.261Z,17.53
2022-08-07T03:57:03.379Z,15.43
2022-08-07T03:59:35.547Z,13.68
2022-08-07T04:02:03.726Z,13.45
2022-08-07T04:04:32.750Z,13.52
2022-08-07T04:07:16.669Z,12.80
2022-08-07T04:09:50.533Z,10.68
2022-08-07T04:12:27.576Z,7.43
2022-08-07T04:15:00.234Z,8.07
2022-08-07T04:18:30.921Z,10.25
2022-08-07T04:20:21.624Z,6.23
2022-08-07T04:22:53.390Z,7.55
2022-08-07T04:25:24.202Z,14.15
2022-08-07T04:28:00.318Z,8.85
2022-08-07T04:30:39.386Z,6.40
2022-08-07T04:33:20.030Z,7.67
2022-08-07T04:35:53.265Z,7.22
2022-08-07T04:38:26.922Z,11.68
2022-08-07T04:40:56.786Z,7.50
2022-08-07T04:44:10.687Z,8.57
2022-08-07T04:47:04.575Z,8.17
2022-08-07T04:50:03.457Z,7.93
2022-08-07T04:52:52.470Z,9.00
2022-08-07T04:58:10.150Z,12.55
2022-08-07T04:59:18.449Z,10.05
2022-08-07T05:01:47.246Z,7.13
2022-08-07T05:04:47.351Z,9.23
2022-08-07T05:07:30.506Z,11.95
2022-08-07T05:10:11.791Z,12.18
2022-08-07T05:12:56.094Z,12.65
2022-08-07T05:15:36.367Z,9.67
2022-08-07T05:18:10.372Z,8.85
2022-08-07T05:20:45.404Z,9.93
2022-08-07T05:23:19.653Z,8.20
2022-08-07T05:26:13.242Z,5.90
2022-08-07T05:28:48.647Z,7.87
2022-08-07T05:31:23.453Z,5.70
2022-08-07T05:34:04.585Z,5.97
2022-08-07T05:36:39.215Z,10.32
2022-08-07T05:40:14.320Z,5.05
2022-08-07T05:42:08.901Z,5.03
2022-08-07T05:44:52.799Z,5.80
2022-08-07T05:47:38.553Z,9.05
2022-08-07T05:50:21.559Z,7.80
2022-08-07T05:52:50.229Z,7.05
2022-08-07T05:55:18.028Z,5.33
2022-08-07T05:57:47.985Z,5.43
2022-08-07T06:00:18.191Z,7.03
2022-08-07T06:03:02.152Z,6.65
2022-08-07T06:05:32.478Z,5.85
2022-08-07T06:08:13.319Z,5.47
2022-08-07T06:10:54.870Z,8.63
2022-08-07T06:14:10.311Z,8.55
2022-08-07T06:16:15.360Z,6.90
2022-08-07T06:18:55.518Z,3.95
2022-08-07T06:22:16.649Z,4.47
2022-08-07T06:24:48.210Z,7.28
2022-08-07T06:27:03.749Z,5.57
2022-08-07T06:29:38.800Z,5.82
2022-08-07T06:32:08.489Z,4.47
2022-08-07T06:34:36.035Z,5.70
2022-08-07T06:37:09.020Z,4.75
2022-08-07T06:40:15.906Z,5.32
2022-08-07T06:42:36.916Z,5.60
2022-08-07T06:45:37.243Z,3.72
2022-08-07T06:48:06.920Z,3.40
2022-08-07T06:50:47.776Z,7.38
2022-08-07T06:54:12.198Z,3.85
2022-08-07T06:56:15.075Z,4.88
2022-08-07T07:00:13.921Z,3.30
2022-08-07T07:01:48.901Z,6.07
2022-08-07T07:04:28.488Z,4.70
2022-08-07T07:07:10.460Z,5.85
2022-08-07T07:09:48.970Z,4.40
2022-08-07T07:12:33.631Z,3.90
2022-08-07T07:15:08.589Z,4.83
2022-08-07T07:18:02.163Z,4.38
2022-08-07T07:21:13.306Z,4.75
2022-08-07T07:24:08.949Z,5.88
2022-08-07T07:26:37.237Z,4.25
2022-08-07T07:29:55.815Z,3.67
2022-08-07T07:32:11.888Z,5.00
2022-08-07T07:34:50.004Z,6.63
2022-08-07T07:37:45.377Z,5.22
2022-08-07T07:40:10.242Z,5.32
2022-08-07T07:42:53.825Z,4.50
2022-08-07T07:46:38.104Z,5.90
2022-08-07T07:48:35.324Z,5.38
2022-08-07T07:51:07.573Z,5.25
2022-08-07T07:53:52.060Z,3.53
2022-08-07T07:56:30.285Z,3.00
2022-08-07T07:59:06.213Z,3.42
2022-08-07T08:02:02.170Z,5.25
2022-08-07T08:04:25.891Z,3.97
2022-08-07T08:06:54.564Z,3.55
2022-08-07T08:09:29.480Z,3.33
2022-08-07T08:12:02.003Z,3.65
2022-08-07T08:14:34.147Z,2.80
2022-08-07T08:17:55.599Z,3.75
2022-08-07T08:20:17.081Z,3.88
2022-08-07T08:23:09.382Z,2.97
2022-08-07T08:26:03.369Z,5.68
2022-08-07T08:28:39.171Z,3.55
2022-08-07T08:31:16.326Z,3.80
2022-08-07T08:33:55.824Z,4.10
2022-08-07T08:36:30.322Z,3.77
2022-08-07T08:39:01.925Z,2.42
2022-08-07T08:41:57.170Z,2.35
2022-08-07T08:45:05.938Z,2.30
2022-08-07T08:47:52.512Z,3.42
2022-08-07T08:50:39.280Z,2.43
2022-08-07T08:53:29.283Z,2.30
2022-08-07T08:56:10.936Z,2.47
2022-08-07T08:59:13.741Z,2.58
2022-08-07T09:01:49.178Z,3.90
2022-08-07T09:04:30.344Z,2.27
2022-08-07T09:07:11.559Z,2.85
2022-08-07T09:10:06.588Z,2.08
2022-08-07T09:13:02.388Z,6.10
2022-08-07T09:16:22.936Z,4.78
2022-08-07T09:19:52.095Z,2.70
2022-08-07T09:22:37.050Z,3.25
2022-08-07T09:25:07.003Z,2.13
2022-08-07T09:28:04.297Z,3.05
2022-08-07T09:31:08.520Z,3.58
2022-08-07T09:33:57.866Z,2.80
2022-08-07T09:36:35.661Z,3.67
2022-08-07T09:39:54.663Z,4.53
2022-08-07T09:42:41.132Z,2.42
2022-08-07T09:47:23.828Z,3.35
2022-08-07T09:48:08.802Z,3.57
2022-08-07T09:52:09.240Z,2.72
2022-08-07T09:54:07.112Z,10.27
2022-08-07T09:56:53.977Z,3.00
2022-08-07T09:59:21.960Z,3.85
2022-08-07T10:02:19.131Z,3.47
2022-08-07T10:05:16.285Z,3.55
2022-08-07T10:08:04.670Z,2.55
2022-08-07T10:12:00.483Z,3.20
2022-08-07T10:14:11.107Z,2.97
2022-08-07T10:17:14.496Z,4.97
2022-08-07T10:19:49.491Z,2.20
2022-08-07T10:22:51.174Z,2.78
2022-08-07T10:25:44.539Z,2.35
2022-08-07T10:28:36.579Z,2.47
2022-08-07T10:31:39.061Z,5.37
2022-08-07T10:34:27.035Z,3.15
2022-08-07T10:37:48.702Z,3.33
2022-08-07T10:40:30.593Z,2.28
2022-08-07T10:43:02.695Z,2.58
2022-08-07T10:45:57.081Z,3.77
2022-08-07T10:48:51.531Z,2.10
2022-08-07T10:51:39.303Z,2.33
2022-08-07T10:54:15.640Z,2.58
2022-08-07T10:57:22.104Z,3.88
2022-08-07T11:00:39.240Z,3.97
2022-08-07T11:03:15.129Z,3.88
2022-08-07T11:05:50.880Z,4.57
2022-08-07T11:08:46.026Z,3.92
2022-08-07T11:11:24.780Z,2.70
2022-08-07T11:14:45.970Z,2.60
2022-08-07T11:17:13.525Z,3.92
2022-08-07T11:20:03.356Z,2.22
2022-08-07T11:22:45.639Z,2.72
2022-08-07T11:25:23.890Z,3.83
2022-08-07T11:28:15.621Z,3.20
2022-08-07T11:30:50.937Z,3.67
2022-08-07T11:33:59.096Z,3.33
2022-08-07T11:36:25.386Z,2.55
2022-08-07T11:39:39.668Z,2.58
2022-08-07T11:42:37.493Z,3.47
2022-08-07T11:45:35.898Z,3.80
2022-08-07T11:48:18.024Z,6.95
2022-08-07T11:51:41.222Z,3.53
2022-08-07T11:54:55.041Z,2.45
2022-08-07T11:57:59.757Z,4.30
2022-08-07T12:01:05.113Z,2.90
2022-08-07T12:03:46.097Z,3.17
2022-08-07T12:06:55.359Z,2.58
2022-08-07T12:09:48.990Z,2.35
2022-08-07T12:12:25.515Z,2.67
2022-08-07T12:15:01.366Z,1.58
2022-08-07T12:17:59.739Z,4.47
2022-08-07T12:20:46.347Z,2.22
2022-08-07T12:24:06.105Z,2.45
2022-08-07T12:26:46.849Z,2.40
2022-08-07T12:29:38.376Z,3.08
2022-08-07T12:32:21.196Z,4.00
2022-08-07T12:34:55.597Z,3.10
2022-08-07T12:37:28.304Z,2.13
2022-08-07T12:40:44.896Z,2.97
2022-08-07T12:43:09.675Z,3.00
2022-08-07T12:45:56.973Z,2.40
2022-08-07T12:48:53.153Z,4.45
2022-08-07T12:51:33.450Z,3.63
2022-08-07T12:54:41.309Z,2.77
2022-08-07T12:57:11.281Z,1.83
2022-08-07T12:59:54.213Z,3.50
2022-08-07T13:02:49.468Z,2.72
2022-08-07T13:06:03.000Z,3.22
2022-08-07T13:08:43.330Z,2.23
2022-08-07T13:12:01.853Z,3.50
2022-08-07T13:14:55.389Z,4.95
2022-08-07T13:17:42.483Z,4.43
2022-08-07T13:20:21.811Z,3.53
2022-08-07T13:24:00.158Z,2.27
2022-08-07T13:26:18.398Z,4.60
2022-08-07T13:29:09.937Z,3.55
2022-08-07T13:31:57.604Z,2.65
2022-08-07T13:34:36.257Z,2.72
2022-08-07T13:37:22.322Z,2.90
2022-08-07T13:40:35.034Z,3.75
2022-08-07T13:42:53.414Z,3.13
2022-08-07T13:46:10.906Z,4.07
2022-08-07T13:48:27.911Z,2.45
2022-08-07T13:51:20.423Z,2.77
2022-08-07T13:54:00.181Z,2.72
2022-08-07T13:56:35.815Z,6.30
2022-08-07T13:59:27.263Z,4.95
2022-08-07T14:02:04.780Z,4.90
2022-08-07T14:04:47.417Z,5.47
2022-08-07T14:07:23.074Z,3.88
2022-08-07T14:10:02.488Z,4.93
2022-08-07T14:12:49.480Z,2.78
2022-08-07T14:15:42.586Z,2.67
2022-08-07T14:18:30.752Z,3.57
2022-08-07T14:21:20.651Z,3.22
2022-08-07T14:24:01.947Z,5.57
2022-08-07T14:26:37.570Z,5.88
2022-08-07T14:30:07.112Z,4.72
2022-08-07T14:32:03.644Z,4.43
2022-08-07T14:34:33.718Z,2.88
2022-08-07T14:37:03.726Z,2.80
2022-08-07T14:40:14.834Z,4.07
2022-08-07T14:45:21.917Z,5.13
2022-08-07T14:48:07.762Z,4.32
2022-08-07T14:50:42.454Z,3.47
2022-08-07T14:53:11.422Z,3.25
2022-08-07T14:58:35.902Z,4.43
2022-08-07T15:03:53.696Z,5.15
2022-08-07T15:06:26.206Z,5.22
2022-08-07T15:08:55.742Z,7.95
2022-08-07T15:11:53.482Z,7.00
2022-08-07T15:14:22.917Z,8.32
2022-08-07T15:17:11.716Z,8.70
2022-08-07T15:23:17.077Z,5.38
2022-08-07T15:25:55.625Z,4.93
2022-08-07T15:28:34.749Z,4.50
2022-08-07T15:31:08.661Z,4.03
2022-08-07T15:39:17.749Z,4.10
2022-08-07T15:44:52.569Z,4.03
2022-08-07T15:51:01.480Z,3.67
2022-08-07T15:53:11.850Z,6.03
2022-08-07T15:55:53.838Z,4.60
2022-08-07T15:58:40.419Z,7.90
2022-08-07T16:01:20.498Z,7.22
2022-08-07T16:03:58.251Z,5.55
2022-08-07T16:06:49.471Z,12.10
2022-08-07T16:09:22.816Z,4.88
2022-08-07T16:12:12.268Z,5.00
2022-08-07T16:15:05.785Z,3.80
2022-08-07T16:18:01.429Z,8.60
2022-08-07T16:21:42.988Z,10.37
2022-08-07T16:24:03.668Z,6.78
2022-08-07T16:26:59.537Z,4.93
2022-08-07T16:30:09.994Z,8.23
2022-08-07T16:32:54.587Z,4.70
2022-08-07T16:35:56.561Z,4.00
2022-08-07T16:39:00.995Z,4.40
2022-08-07T16:41:54.470Z,5.60
2022-08-07T16:45:03.838Z,3.90
2022-08-07T16:47:55.864Z,5.28
2022-08-07T16:51:21.591Z,3.50
2022-08-07T16:54:32.508Z,3.50
2022-08-07T16:58:03.009Z,5.07
2022-08-07T17:00:14.990Z,4.72
2022-08-07T17:03:06.324Z,4.60
2022-08-07T17:06:19.073Z,4.67
2022-08-07T17:09:14.274Z,6.40
2022-08-07T17:12:04.680Z,5.22
2022-08-07T17:14:50.233Z,4.68
2022-08-07T17:17:44.237Z,5.40
2022-08-07T17:20:31.667Z,5.70
2022-08-07T17:23:35.337Z,4.20
2022-08-07T17:26:23.603Z,4.75
2022-08-07T17:29:07.737Z,6.10
2022-08-07T17:31:44.381Z,4.13
2022-08-07T17:34:40.939Z,3.67
2022-08-07T17:38:09.491Z,4.95
2022-08-07T17:40:32.194Z,4.15
2022-08-07T17:44:01.793Z,6.10
2022-08-07T17:46:36.222Z,3.05
2022-08-07T17:49:24.133Z,3.97
2022-08-07T17:52:14.112Z,4.82
2022-08-07T17:54:53.707Z,6.28
2022-08-07T17:57:58.540Z,4.68
2022-08-07T18:00:49.211Z,5.43
2022-08-07T18:04:04.412Z,5.77
2022-08-07T18:06:38.453Z,6.43
2022-08-07T18:09:08.660Z,4.88
2022-08-07T18:12:16.133Z,5.88
2022-08-07T18:15:02.206Z,5.25
2022-08-07T18:18:46.614Z,3.67
2022-08-07T18:21:57.825Z,5.88
2022-08-07T18:25:24.120Z,7.10
2022-08-07T18:28:12.404Z,4.63
2022-08-07T18:30:56.289Z,6.13
2022-08-07T18:33:58.530Z,4.83
2022-08-07T18:37:14.560Z,3.72
2022-08-07T18:40:42.572Z,7.57
2022-08-07T18:43:15.945Z,4.07
2022-08-07T18:46:24.649Z,6.28
2022-08-07T18:50:31.520Z,4.53
2022-08-07T18:52:25.462Z,5.50
2022-08-07T18:55:42.867Z,4.30
2022-08-07T18:58:14.727Z,3.58
2022-08-07T19:01:02.076Z,4.35
2022-08-07T19:03:43.755Z,5.00
2022-08-07T19:06:21.660Z,6.40
2022-08-07T19:09:55.512Z,7.05
2022-08-07T19:12:35.241Z,2.58
2022-08-07T19:16:04.216Z,7.38
2022-08-07T19:18:36.717Z,7.53
2022-08-07T19:21:51.043Z,4.70
2022-08-07T19:24:30.959Z,3.90
2022-08-07T19:28:58.401Z,5.03
2022-08-07T19:31:00.136Z,3.22
2022-08-07T19:32:51.291Z,5.90
2022-08-07T19:35:23.589Z,3.22
2022-08-07T19:37:58.152Z,4.00
2022-08-07T19:40:37.018Z,2.47
2022-08-07T19:43:43.923Z,5.15
2022-08-07T19:46:10.886Z,2.90
2022-08-07T19:48:42.732Z,6.55
2022-08-07T19:51:19.832Z,5.63
2022-08-07T19:54:31.046Z,3.35
2022-08-07T19:58:02.455Z,7.43
2022-08-07T19:59:40.981Z,3.67
2022-08-07T20:02:19.744Z,4.28
2022-08-07T20:04:50.529Z,5.80
2022-08-07T20:07:46.340Z,3.40
2022-08-07T20:10:37.886Z,5.00
2022-08-07T20:13:22.697Z,4.90
2022-08-07T20:15:57.874Z,4.15
2022-08-07T20:18:32.752Z,5.90
2022-08-07T20:21:21.571Z,5.45
2022-08-07T20:24:04.372Z,2.85
2022-08-07T20:26:44.975Z,4.40
2022-08-07T20:29:48.146Z,5.63
2022-08-07T20:32:11.403Z,3.97
2022-08-07T20:34:53.175Z,3.63
2022-08-07T20:37:29.794Z,4.72
2022-08-07T20:40:05.591Z,5.17
2022-08-07T20:42:57.803Z,2.20
2022-08-07T20:45:33.108Z,4.00
2022-08-07T20:48:29.022Z,3.22
2022-08-07T20:51:01.477Z,5.85
2022-08-07T20:54:03.851Z,5.67
2022-08-07T20:56:32.331Z,3.97
2022-08-07T20:59:05.415Z,5.78
2022-08-07T21:01:45.216Z,7.10
2022-08-07T21:04:27.862Z,6.50
2022-08-07T21:07:04.443Z,5.20
2022-08-07T21:09:52.959Z,4.88
2022-08-07T21:12:31.853Z,3.75
2022-08-07T21:15:05.969Z,8.38
2022-08-07T21:18:03.912Z,4.43
2022-08-07T21:20:33.117Z,6.87
2022-08-07T21:23:15.395Z,4.57
2022-08-07T21:25:56.865Z,4.05
2022-08-07T21:28:51.075Z,7.18
2022-08-07T21:32:03.700Z,5.72
2022-08-07T21:35:17.697Z,6.07
2022-08-07T21:38:19.590Z,7.85
2022-08-07T21:41:10.085Z,7.13
2022-08-07T21:43:57.471Z,8.43
2022-08-07T21:46:49.922Z,11.07
2022-08-07T21:50:02.881Z,9.63
2022-08-07T21:52:42.842Z,11.57
2022-08-07T21:55:19.522Z,14.48
2022-08-07T21:58:32.427Z,10.60
2022-08-07T22:01:14.100Z,11.65
2022-08-07T22:04:00.613Z,11.53
2022-08-07T22:06:37.523Z,6.05
2022-08-07T22:09:17.774Z,8.20
2022-08-07T22:12:05.099Z,9.98
2022-08-07T22:16:43.805Z,5.22
2022-08-07T22:18:35.900Z,6.00
2022-08-07T22:21:24.100Z,4.75
2022-08-07T22:24:33.159Z,8.38
2022-08-07T22:27:34.222Z,5.40
2022-08-07T22:30:16.860Z,4.47
2022-08-07T22:33:52.533Z,4.13
2022-08-07T22:36:23.859Z,4.47
2022-08-07T22:39:30.415Z,5.32
2022-08-07T22:42:25.963Z,5.78
2022-08-07T22:45:02.269Z,6.80
2022-08-07T22:48:31.293Z,5.90
2022-08-07T22:51:04.611Z,5.45
2022-08-07T22:54:07.982Z,7.80
2022-08-07T22:57:05.483Z,5.95
2022-08-07T22:59:49.735Z,6.10
2022-08-07T23:02:32.097Z,4.30
2022-08-07T23:06:07.201Z,3.40
2022-08-07T23:08:14.760Z,4.82
2022-08-07T23:11:12.883Z,7.05
2022-08-07T23:14:10.775Z,4.35
2022-08-07T23:17:04.033Z,3.57
2022-08-07T23:20:21.561Z,4.40
2022-08-07T23:24:05.177Z,5.45
2022-08-07T23:27:07.887Z,5.75
2022-08-07T23:30:37.497Z,5.28
2022-08-07T23:34:23.883Z,3.70
2022-08-07T23:37:17.940Z,3.72
2022-08-07T23:39:59.046Z,7.28
2022-08-07T23:42:39.923Z,3.00
2022-08-07T23:45:33.390Z,6.97
2022-08-07T23:49:00.616Z,4.87
2022-08-07T23:53:01.774Z,5.60
2022-08-07T23:54:44.607Z,6.03
2022-08-07T23:57:37.242Z,5.80
